Norah Head Lighthouse, Australia
Current Conditions -  °F | °C
As of 8:00 PM on Friday 24 Oct 2014 (Local Time) from YWLM Reporting Station
Clear Clear  
Wind Chill: 73°   Ceiling: Unl
Heat Index: 73°   Visibility: 6mi
Dew Point: 63°   Wind: 12mph
Humidity: 69%   Direction: 60°ENE
Pressure: 29.91"   Gusts: NA
Location:  33.27°S, 151.57°E
Report Text: YWLM 240900Z AUTO 06010KT 9999 // NCD 23/17 Q1013
Loading
Personal Weather Stations






























Interactive Weather Map
Tropical Storm Tracking
New forecast layout! Learn more

10-Day Weather Forecast

Advertisements
Track Severe Weather on mobile